Time;durP1;ratioP1;P1;durP2;ratioP2;P2;SDS_P1;SDS_P2;PMS_P1;PMS_P2;Temp;Humidity;BMP_temperature;BMP_pressure;BME280_temperature;BME280_humidity;BME280_pressure;Samples;Min_cycle;Max_cycle;Signal;HPM_P1;HPM_P2
2021/01/27 00:00:17;;;;;;;18.17;11.40;;;3.20;99.90;;;;;;4971977;28;20210;-83
2021/01/27 00:02:44;;;;;;;18.23;11.13;;;3.20;99.90;;;;;;4973290;28;20247;-83
2021/01/27 00:05:15;;;;;;;16.60;10.63;;;3.20;99.90;;;;;;4973805;28;20296;-83
2021/01/27 00:07:41;;;;;;;15.80;10.73;;;3.30;99.90;;;;;;4972927;28;20200;-83
2021/01/27 00:10:09;;;;;;;15.97;10.77;;;3.30;99.90;;;;;;4973416;28;20258;-83
2021/01/27 00:12:36;;;;;;;16.07;11.20;;;3.30;99.90;;;;;;4972799;28;20230;-83
2021/01/27 00:15:07;;;;;;;17.57;10.93;;;3.30;99.90;;;;;;4971380;28;20628;-82
2021/01/27 00:17:34;;;;;;;19.30;11.60;;;3.30;99.90;;;;;;4972714;28;20297;-83
2021/01/27 00:20:01;;;;;;;21.57;13.10;;;3.30;99.90;;;;;;4973223;28;20232;-82
2021/01/27 00:22:28;;;;;;;16.27;11.53;;;3.40;99.90;;;;;;4973101;28;20226;-83
2021/01/27 00:24:54;;;;;;;17.43;12.90;;;3.40;99.90;;;;;;4971792;28;20235;-83
2021/01/27 00:27:20;;;;;;;20.43;12.30;;;3.40;99.90;;;;;;4973445;28;20219;-83
2021/01/27 00:29:47;;;;;;;16.67;12.40;;;3.40;99.90;;;;;;4972635;28;20231;-83
2021/01/27 00:32:13;;;;;;;17.97;12.33;;;3.40;99.90;;;;;;4972778;28;20651;-83
2021/01/27 00:34:40;;;;;;;17.10;11.43;;;3.40;99.90;;;;;;4972577;28;20231;-83
2021/01/27 00:37:07;;;;;;;20.40;12.53;;;3.40;99.90;;;;;;4972698;28;20711;-83
2021/01/27 00:39:33;;;;;;;18.07;13.03;;;3.40;99.90;;;;;;4972541;28;20198;-82
2021/01/27 00:42:00;;;;;;;21.50;12.80;;;3.40;99.90;;;;;;4972480;28;20257;-83
2021/01/27 00:44:26;;;;;;;18.27;12.73;;;3.50;99.90;;;;;;4971969;28;20302;-82
2021/01/27 00:46:53;;;;;;;20.27;13.27;;;3.50;99.90;;;;;;4972887;28;20291;-83
2021/01/27 00:49:19;;;;;;;20.03;13.37;;;3.50;99.90;;;;;;4972780;28;20257;-83
2021/01/27 00:51:46;;;;;;;17.67;12.87;;;3.50;99.90;;;;;;4971914;28;20688;-83
2021/01/27 00:54:13;;;;;;;20.03;12.33;;;3.50;99.90;;;;;;4973080;28;20243;-83
2021/01/27 00:56:39;;;;;;;18.33;13.17;;;3.50;99.90;;;;;;4972066;28;20199;-82
2021/01/27 00:59:06;;;;;;;20.20;12.97;;;3.50;99.90;;;;;;4972591;28;20232;-83
2021/01/27 01:01:32;;;;;;;20.03;12.07;;;3.50;99.90;;;;;;4971735;28;20209;-83
2021/01/27 01:03:59;;;;;;;20.37;13.60;;;3.50;99.90;;;;;;4972093;28;20289;-83
2021/01/27 01:06:25;;;;;;;21.67;14.10;;;3.50;99.90;;;;;;4973155;28;20298;-83
2021/01/27 01:08:52;;;;;;;21.13;13.57;;;3.50;99.90;;;;;;4972099;28;20227;-83
2021/01/27 01:11:19;;;;;;;20.00;14.17;;;3.50;99.90;;;;;;4972454;28;20424;-83
2021/01/27 01:13:45;;;;;;;20.97;13.77;;;3.50;99.90;;;;;;4972443;28;20203;-83
2021/01/27 01:16:12;;;;;;;20.97;14.10;;;3.50;99.90;;;;;;4971589;28;20215;-83
2021/01/27 01:18:38;;;;;;;23.00;14.87;;;3.50;99.90;;;;;;5012078;28;20297;-84
2021/01/27 01:21:05;;;;;;;22.23;14.90;;;3.50;99.90;;;;;;4986547;28;20269;-83
2021/01/27 01:23:32;;;;;;;23.80;14.63;;;3.50;99.90;;;;;;4972099;28;20289;-84
2021/01/27 01:25:58;;;;;;;22.50;14.97;;;3.60;99.90;;;;;;4971928;28;20234;-83
2021/01/27 01:28:25;;;;;;;21.60;15.20;;;3.60;99.90;;;;;;4972539;28;20203;-83
2021/01/27 01:30:52;;;;;;;22.67;15.37;;;3.60;99.90;;;;;;4971613;28;20270;-83
2021/01/27 01:33:21;;;;;;;23.33;15.63;;;3.60;99.90;;;;;;4971718;28;20628;-83
2021/01/27 01:35:49;;;;;;;25.77;15.40;;;3.60;99.90;;;;;;4972762;28;20216;-83
2021/01/27 01:38:16;;;;;;;20.47;15.03;;;3.60;99.90;;;;;;4972622;28;20209;-83
2021/01/27 01:40:46;;;;;;;21.67;15.47;;;3.60;99.90;;;;;;4971982;28;20228;-83
2021/01/27 01:43:16;;;;;;;19.90;14.57;;;3.60;99.90;;;;;;4970900;28;20205;-83
2021/01/27 01:45:48;;;;;;;22.83;15.43;;;3.60;99.90;;;;;;4971876;28;20665;-84
2021/01/27 01:48:24;;;;;;;26.13;16.27;;;3.60;99.90;;;;;;4972176;28;20570;-83
2021/01/27 01:50:54;;;;;;;23.73;16.00;;;3.60;99.90;;;;;;4971072;28;20252;-83
2021/01/27 01:53:22;;;;;;;22.43;15.07;;;3.60;99.90;;;;;;4971578;28;20208;-84
2021/01/27 01:55:52;;;;;;;23.90;15.63;;;3.60;99.90;;;;;;4970337;28;20772;-82
2021/01/27 01:58:19;;;;;;;24.30;15.37;;;3.70;99.90;;;;;;4970962;28;20231;-84
2021/01/27 02:00:53;;;;;;;27.47;16.00;;;3.60;99.90;;;;;;4970977;28;20215;-83
2021/01/27 02:03:20;;;;;;;25.40;16.63;;;3.60;99.90;;;;;;4970406;28;20211;-83
2021/01/27 02:05:47;;;;;;;25.17;16.13;;;3.70;99.90;;;;;;4970860;28;20231;-84
2021/01/27 02:08:14;;;;;;;27.63;15.93;;;3.70;99.90;;;;;;4970411;28;20669;-83
2021/01/27 02:10:41;;;;;;;23.43;15.87;;;3.70;99.90;;;;;;4969614;28;20244;-83
2021/01/27 02:13:34;;;;;;;27.83;16.13;;;3.70;99.90;;;;;;4970212;28;20195;-83
2021/01/27 02:16:10;;;;;;;25.03;15.87;;;3.70;99.90;;;;;;4970320;28;20192;-83
2021/01/27 02:19:03;;;;;;;26.83;15.97;;;3.70;99.90;;;;;;4986760;28;20704;-83
2021/01/27 02:21:57;;;;;;;24.87;15.73;;;3.70;99.90;;;;;;4969767;28;20567;-83
2021/01/27 02:24:56;;;;;;;24.47;16.33;;;3.70;99.90;;;;;;4969361;28;20249;-83
2021/01/27 02:27:25;;;;;;;25.00;16.03;;;3.60;99.90;;;;;;4872624;28;20677;-84
2021/01/27 02:30:06;;;;;;;25.00;15.73;;;3.60;99.90;;;;;;4872544;29;20212;-83
2021/01/27 02:32:57;;;;;;;26.47;15.83;;;3.60;99.90;;;;;;4873272;29;20232;-83
2021/01/27 02:35:30;;;;;;;27.90;16.80;;;3.70;99.90;;;;;;4873467;29;20708;-83
2021/01/27 02:38:00;;;;;;;25.63;15.93;;;3.70;99.90;;;;;;4873149;29;20729;-84
2021/01/27 02:40:31;;;;;;;23.40;16.23;;;3.70;99.90;;;;;;4872512;29;20269;-83
2021/01/27 02:43:11;;;;;;;24.47;16.03;;;3.70;99.90;;;;;;4873606;28;20240;-83
2021/01/27 02:45:43;;;;;;;23.70;15.60;;;3.70;99.90;;;;;;4873160;29;20199;-83
2021/01/27 02:48:14;;;;;;;24.23;16.43;;;3.70;99.90;;;;;;4872962;29;20261;-83
2021/01/27 02:50:44;;;;;;;26.90;16.97;;;3.70;99.90;;;;;;4872982;29;20259;-84
2021/01/27 02:53:18;;;;;;;31.40;16.53;;;3.80;99.90;;;;;;4872912;29;20240;-83
2021/01/27 02:55:50;;;;;;;27.20;17.37;;;3.70;99.90;;;;;;4872953;28;20287;-83
2021/01/27 02:58:21;;;;;;;26.00;16.20;;;3.80;99.90;;;;;;4872324;29;20310;-83
2021/01/27 03:00:56;;;;;;;26.73;16.43;;;3.80;99.90;;;;;;4872541;29;20216;-83
2021/01/27 03:03:27;;;;;;;23.73;16.33;;;3.80;99.90;;;;;;4881358;28;20291;-83
2021/01/27 03:05:58;;;;;;;27.87;16.80;;;3.80;99.90;;;;;;4968237;28;20206;-83
2021/01/27 03:08:27;;;;;;;27.23;17.13;;;3.80;99.90;;;;;;4973060;28;20333;-83
2021/01/27 03:11:03;;;;;;;28.20;16.97;;;3.80;99.90;;;;;;4973346;28;20228;-84
2021/01/27 03:13:30;;;;;;;24.67;16.87;;;3.90;99.90;;;;;;4973060;28;20270;-83
2021/01/27 03:15:59;;;;;;;26.53;16.63;;;3.90;99.90;;;;;;4972806;28;20233;-83
2021/01/27 03:18:31;;;;;;;26.00;16.70;;;3.90;99.90;;;;;;5003723;28;20248;-83
2021/01/27 03:21:03;;;;;;;27.73;16.63;;;3.90;99.90;;;;;;5060434;28;20841;-83
2021/01/27 03:23:37;;;;;;;28.07;17.27;;;3.90;99.90;;;;;;4972409;28;20252;-83
2021/01/27 03:26:12;;;;;;;25.43;16.67;;;3.90;99.90;;;;;;4972517;28;20292;-83
2021/01/27 03:28:44;;;;;;;27.33;18.03;;;3.90;99.90;;;;;;5068520;28;20210;-83
2021/01/27 03:31:11;;;;;;;27.67;17.47;;;3.90;99.90;;;;;;4999150;28;20270;-83
2021/01/27 03:33:48;;;;;;;28.07;17.43;;;4.00;99.90;;;;;;4972590;28;20317;-83
2021/01/27 03:36:16;;;;;;;28.63;17.33;;;4.00;99.90;;;;;;4971998;28;20204;-83
2021/01/27 03:38:46;;;;;;;31.67;18.13;;;4.00;99.90;;;;;;4972870;28;20207;-83
2021/01/27 03:41:17;;;;;;;29.83;18.00;;;4.00;99.90;;;;;;4973341;28;20237;-84
2021/01/27 03:44:04;;;;;;;29.07;17.17;;;4.00;99.90;;;;;;4972142;28;20217;-83
2021/01/27 03:46:36;;;;;;;30.57;17.37;;;4.00;99.90;;;;;;4973215;28;20572;-83
2021/01/27 03:49:07;;;;;;;27.33;17.43;;;4.10;99.90;;;;;;4973184;28;20200;-83
2021/01/27 03:51:41;;;;;;;29.27;17.87;;;4.10;99.90;;;;;;4972181;28;20229;-83
2021/01/27 03:54:14;;;;;;;27.17;16.90;;;4.10;99.90;;;;;;4972656;28;20227;-84
2021/01/27 03:56:46;;;;;;;29.23;18.70;;;4.20;99.90;;;;;;4972620;28;20292;-83
2021/01/27 03:59:13;;;;;;;30.90;19.47;;;4.20;99.90;;;;;;4973596;28;20221;-84
2021/01/27 04:01:51;;;;;;;33.43;20.67;;;4.20;99.90;;;;;;4972280;28;20197;-83
2021/01/27 04:04:18;;;;;;;34.27;19.17;;;4.20;99.90;;;;;;4972326;28;20246;-83
2021/01/27 04:06:45;;;;;;;29.37;18.70;;;4.30;99.90;;;;;;4971897;28;20263;-83
2021/01/27 04:09:12;;;;;;;29.00;18.47;;;4.30;99.90;;;;;;4972121;28;20226;-83
2021/01/27 04:11:39;;;;;;;33.20;19.33;;;4.30;99.90;;;;;;4971582;28;20241;-83
2021/01/27 04:14:05;;;;;;;30.23;18.97;;;4.30;99.90;;;;;;4971879;28;20234;-83
2021/01/27 04:16:32;;;;;;;29.37;18.90;;;4.30;99.90;;;;;;4972268;28;20287;-83
2021/01/27 04:19:00;;;;;;;33.10;19.23;;;4.40;99.90;;;;;;4971557;28;20217;-83
2021/01/27 04:21:27;;;;;;;30.60;18.37;;;4.40;99.90;;;;;;4972005;28;20238;-83
2021/01/27 04:23:54;;;;;;;35.73;19.27;;;4.40;99.90;;;;;;4971908;28;20201;-83
2021/01/27 04:26:21;;;;;;;28.27;18.77;;;4.50;99.90;;;;;;4971992;28;20635;-84
2021/01/27 04:28:48;;;;;;;35.13;19.10;;;4.50;99.90;;;;;;4952862;28;20558;-83
2021/01/27 04:31:15;;;;;;;32.07;19.90;;;4.50;99.90;;;;;;4953001;28;20234;-83
2021/01/27 04:33:41;;;;;;;37.43;20.00;;;4.60;99.90;;;;;;4969834;28;20230;-84
2021/01/27 04:36:08;;;;;;;35.87;19.77;;;4.60;99.90;;;;;;4971366;28;20197;-84
2021/01/27 04:38:35;;;;;;;37.83;20.80;;;4.70;99.90;;;;;;4971469;28;20676;-84
2021/01/27 04:41:03;;;;;;;35.57;20.20;;;4.70;99.90;;;;;;4971154;28;20210;-84
2021/01/27 04:43:33;;;;;;;42.13;20.70;;;4.70;99.90;;;;;;4971142;28;20279;-83
2021/01/27 04:46:04;;;;;;;41.30;20.33;;;4.70;99.90;;;;;;4971285;28;20617;-83
2021/01/27 04:48:41;;;;;;;41.77;20.80;;;4.80;99.90;;;;;;4971420;28;20674;-83
2021/01/27 04:51:13;;;;;;;41.70;21.40;;;4.80;99.90;;;;;;4971071;28;20229;-83
2021/01/27 04:53:50;;;;;;;40.30;22.20;;;4.80;99.90;;;;;;4971197;28;20207;-84
2021/01/27 04:56:44;;;;;;;46.77;21.83;;;4.90;99.90;;;;;;4971503;28;20559;-84
2021/01/27 04:59:14;;;;;;;54.87;22.17;;;4.90;99.90;;;;;;4971082;28;20247;-84
2021/01/27 05:02:07;;;;;;;45.90;23.17;;;5.00;99.90;;;;;;4971762;28;20209;-84
2021/01/27 05:05:07;;;;;;;44.70;23.00;;;5.00;99.90;;;;;;4971032;28;20213;-83
2021/01/27 05:07:48;;;;;;;51.03;23.37;;;5.10;99.90;;;;;;4911374;28;20216;-83
2021/01/27 05:10:18;;;;;;;49.23;22.03;;;5.10;99.90;;;;;;4911795;29;20613;-83
2021/01/27 05:12:51;;;;;;;69.27;23.20;;;5.10;99.90;;;;;;4911146;29;20201;-83
2021/01/27 05:15:18;;;;;;;71.07;24.87;;;5.20;99.90;;;;;;4911458;28;20208;-83
2021/01/27 05:17:46;;;;;;;59.20;24.10;;;5.20;99.90;;;;;;4913840;28;20744;-83
2021/01/27 05:20:14;;;;;;;62.40;24.17;;;5.20;99.90;;;;;;4962395;28;20276;-84
2021/01/27 05:22:41;;;;;;;61.17;24.17;;;5.30;99.90;;;;;;4912089;29;20670;-83
2021/01/27 05:25:13;;;;;;;74.20;23.73;;;5.30;99.90;;;;;;4911783;28;20209;-84
2021/01/27 05:27:41;;;;;;;67.33;23.17;;;5.30;99.90;;;;;;4911287;28;20204;-83
2021/01/27 05:30:23;;;;;;;60.40;22.23;;;5.30;99.90;;;;;;4910463;28;20266;-83
2021/01/27 05:32:51;;;;;;;66.37;23.00;;;5.40;99.90;;;;;;4910777;29;20755;-84
2021/01/27 05:35:30;;;;;;;62.77;23.67;;;5.40;99.90;;;;;;4911571;29;20233;-84
2021/01/27 05:37:58;;;;;;;58.17;21.37;;;5.40;99.90;;;;;;4911902;28;20286;-83
2021/01/27 05:40:34;;;;;;;71.53;21.80;;;5.40;99.90;;;;;;4913066;28;20670;-83
2021/01/27 05:43:13;;;;;;;74.97;22.10;;;5.50;99.90;;;;;;4971114;28;20191;-84
2021/01/27 05:45:42;;;;;;;53.53;19.80;;;5.30;99.90;;;;;;4970689;28;20264;-84
2021/01/27 05:48:26;;;;;;;62.03;20.47;;;5.30;99.90;;;;;;4970630;28;20191;-83
2021/01/27 05:50:54;;;;;;;53.37;19.93;;;5.20;99.90;;;;;;4970131;28;20245;-83
2021/01/27 05:53:23;;;;;;;34.63;20.30;;;5.20;99.90;;;;;;4970061;28;20195;-82
2021/01/27 05:56:01;;;;;;;41.57;20.20;;;5.20;99.90;;;;;;4970938;28;20218;-84
2021/01/27 05:58:30;;;;;;;40.57;20.33;;;5.20;99.90;;;;;;4970572;28;20190;-83
2021/01/27 06:01:35;;;;;;;47.53;21.07;;;5.20;99.90;;;;;;4970525;28;20695;-84
2021/01/27 06:04:15;;;;;;;79.03;21.00;;;5.30;99.90;;;;;;4959973;28;20289;-85
2021/01/27 06:06:54;;;;;;;35.00;20.40;;;5.30;99.90;;;;;;4971221;28;20290;-81
2021/01/27 06:09:35;;;;;;;44.77;20.93;;;5.30;99.90;;;;;;4970183;28;20245;-81
2021/01/27 06:12:03;;;;;;;34.87;20.50;;;5.30;99.90;;;;;;4970260;28;20257;-81
2021/01/27 06:14:30;;;;;;;33.77;20.30;;;5.30;99.90;;;;;;4969772;28;20976;-81
2021/01/27 06:16:56;;;;;;;46.17;20.80;;;5.30;99.90;;;;;;4969815;28;20262;-81
2021/01/27 06:19:26;;;;;;;39.53;20.83;;;5.40;99.90;;;;;;4995762;28;20210;-81
2021/01/27 06:22:18;;;;;;;56.40;23.50;;;5.50;99.90;;;;;;4970965;28;20267;-82
2021/01/27 06:25:05;;;;;;;66.87;22.60;;;5.60;99.90;;;;;;4970625;28;20645;-81
2021/01/27 06:27:50;;;;;;;111.87;32.97;;;5.60;99.90;;;;;;4969535;28;20194;-80
2021/01/27 06:30:38;;;;;;;82.10;32.17;;;5.70;99.90;;;;;;4969593;28;20230;-80
2021/01/27 06:33:23;;;;;;;79.37;29.83;;;5.70;99.90;;;;;;4969595;28;20303;-81
2021/01/27 06:36:02;;;;;;;93.10;28.07;;;5.70;99.90;;;;;;4969505;28;20229;-80
2021/01/27 06:38:42;;;;;;;65.43;28.43;;;5.70;99.90;;;;;;4969363;28;20283;-80
2021/01/27 06:41:35;;;;;;;47.30;26.00;;;5.70;99.90;;;;;;4971905;28;20237;-80
2021/01/27 06:44:18;;;;;;;51.30;27.60;;;5.70;99.90;;;;;;4970676;28;20237;-79
2021/01/27 06:47:04;;;;;;;123.37;35.13;;;5.80;99.90;;;;;;4973337;28;20248;-79
2021/01/27 06:50:15;;;;;;;94.40;37.40;;;5.90;99.90;;;;;;4973581;28;20234;-78
2021/01/27 06:53:12;;;;;;;117.27;34.83;;;6.00;99.90;;;;;;4972832;28;20252;-80
2021/01/27 06:55:58;;;;;;;179.47;35.50;;;6.20;99.90;;;;;;4973058;28;20668;-80
2021/01/27 06:58:49;;;;;;;169.33;66.90;;;6.20;99.90;;;;;;4971037;28;20242;-81
2021/01/27 07:01:51;;;;;;;339.73;136.93;;;6.10;99.90;;;;;;4945063;28;20282;-81
2021/01/27 07:04:48;;;;;;;126.50;43.47;;;6.00;99.90;;;;;;4966824;28;20328;-81
2021/01/27 07:07:40;;;;;;;178.47;32.37;;;6.00;99.90;;;;;;4986925;28;21615;-81
2021/01/27 07:10:37;;;;;;;119.80;30.70;;;6.20;99.90;;;;;;5013444;28;20214;-81
2021/01/27 07:13:15;;;;;;;148.83;30.93;;;6.30;99.90;;;;;;4967461;28;20315;-80
2021/01/27 07:15:58;;;;;;;214.17;30.00;;;6.30;99.90;;;;;;4972105;28;20335;-80
2021/01/27 07:19:01;;;;;;;75.93;27.60;;;6.20;99.90;;;;;;4960422;28;20274;-80
2021/01/27 07:21:32;;;;;;;67.73;27.23;;;6.30;99.90;;;;;;4973264;28;20263;-80
2021/01/27 07:24:07;;;;;;;94.70;28.17;;;6.30;99.90;;;;;;4972512;28;20711;-80
2021/01/27 07:26:39;;;;;;;88.40;25.57;;;6.40;99.90;;;;;;4972396;28;20298;-80
2021/01/27 07:29:11;;;;;;;104.23;24.77;;;6.60;99.90;;;;;;4971567;28;20238;-80
2021/01/27 07:31:45;;;;;;;193.23;28.10;;;6.60;99.90;;;;;;4972117;28;20716;-81
2021/01/27 07:34:17;;;;;;;154.07;32.27;;;6.70;99.90;;;;;;4972065;28;21077;-80
2021/01/27 07:36:58;;;;;;;111.17;36.87;;;6.60;99.90;;;;;;4972129;28;20209;-80
2021/01/27 07:39:29;;;;;;;118.30;29.80;;;6.50;99.90;;;;;;4968949;28;20695;-81
2021/01/27 07:42:10;;;;;;;47.73;26.53;;;6.30;99.90;;;;;;4971121;28;20240;-81
2021/01/27 07:44:38;;;;;;;61.47;24.13;;;6.20;99.90;;;;;;4972260;28;20219;-80
2021/01/27 07:47:12;;;;;;;68.57;22.37;;;6.20;99.90;;;;;;4971931;28;20233;-82
2021/01/27 07:49:42;;;;;;;45.60;21.97;;;6.30;99.90;;;;;;4972077;28;20234;-82
2021/01/27 07:52:24;;;;;;;39.63;21.00;;;6.30;99.90;;;;;;4971603;28;20246;-81
2021/01/27 07:55:00;;;;;;;50.50;24.60;;;6.30;99.90;;;;;;4969823;28;20226;-82
2021/01/27 07:57:39;;;;;;;51.73;26.17;;;6.40;99.90;;;;;;4971247;28;20234;-83
2021/01/27 08:00:11;;;;;;;61.13;27.23;;;6.60;99.90;;;;;;4970795;28;20217;-82
2021/01/27 08:02:48;;;;;;;74.83;25.87;;;6.80;99.90;;;;;;4970389;28;20693;-82
2021/01/27 08:05:16;;;;;;;67.57;26.23;;;6.90;99.90;;;;;;4967221;28;20286;-83
2021/01/27 08:07:49;;;;;;;63.47;26.63;;;7.00;99.90;;;;;;4971766;28;20232;-82
2021/01/27 08:10:25;;;;;;;67.87;29.37;;;7.00;99.90;;;;;;4971000;28;20681;-82
2021/01/27 08:12:54;;;;;;;117.37;38.90;;;7.10;99.90;;;;;;5023263;28;20745;-82
2021/01/27 08:15:41;;;;;;;125.10;43.43;;;7.10;99.90;;;;;;4971624;28;20686;-82
2021/01/27 08:18:17;;;;;;;132.77;47.43;;;7.10;99.90;;;;;;4986646;28;20320;-82
2021/01/27 08:20:46;;;;;;;87.73;41.73;;;7.20;99.90;;;;;;4975366;28;20217;-82
2021/01/27 08:23:42;;;;;;;85.87;30.87;;;7.30;99.90;;;;;;4971024;28;20293;-82
2021/01/27 08:26:09;;;;;;;85.23;26.90;;;7.30;99.90;;;;;;4963098;28;20676;-81
2021/01/27 08:35:54;;;;;;;65.20;24.13;;;7.50;99.90;;;;;;4942049;28;20209;-78
2021/01/27 08:38:28;;;;;;;71.73;24.33;;;7.50;99.90;;;;;;4965891;28;20209;-79
2021/01/27 08:40:56;;;;;;;75.43;23.97;;;7.50;99.90;;;;;;4970859;28;20198;-79
2021/01/27 08:43:29;;;;;;;82.43;25.57;;;7.60;99.90;;;;;;4971136;28;20690;-78
2021/01/27 08:45:57;;;;;;;92.23;25.07;;;7.60;99.90;;;;;;4971317;28;20569;-78
2021/01/27 08:48:47;;;;;;;69.97;26.23;;;7.60;99.90;;;;;;4972059;28;20550;-78
2021/01/27 08:51:45;;;;;;;75.53;25.57;;;7.60;99.90;;;;;;4971039;28;20309;-78
2021/01/27 08:54:45;;;;;;;73.77;27.50;;;7.60;99.90;;;;;;4970969;28;20200;-78
2021/01/27 09:00:50;;;;;;;62.77;24.67;;;7.80;99.90;;;;;;4910392;29;20218;-79
2021/01/27 09:03:53;;;;;;;54.13;23.37;;;7.80;99.90;;;;;;4911133;29;20269;-77
2021/01/27 09:06:25;;;;;;;57.77;21.97;;;7.90;99.90;;;;;;4867561;28;20304;-77
2021/01/27 09:08:55;;;;;;;58.73;21.23;;;7.90;99.90;;;;;;4864006;29;20205;-78
2021/01/27 09:11:23;;;;;;;47.60;21.77;;;8.00;99.90;;;;;;4864883;28;20713;-79
2021/01/27 09:13:49;;;;;;;59.70;27.60;;;8.00;99.90;;;;;;4865461;29;20295;-79
2021/01/27 09:16:18;;;;;;;54.97;24.57;;;8.10;99.90;;;;;;4865952;28;20324;-80
2021/01/27 09:18:54;;;;;;;51.10;21.47;;;8.10;99.90;;;;;;4861821;29;20387;-78
2021/01/27 09:21:22;;;;;;;52.03;22.70;;;8.20;99.90;;;;;;4870254;29;20293;-79
2021/01/27 09:24:00;;;;;;;52.37;24.90;;;8.30;99.90;;;;;;4863021;29;20269;-79
2021/01/27 09:26:41;;;;;;;51.93;24.90;;;8.30;99.90;;;;;;4861430;29;20241;-80
2021/01/27 09:29:12;;;;;;;56.60;25.27;;;8.30;99.90;;;;;;4863140;29;20261;-80
2021/01/27 09:31:38;;;;;;;51.13;25.30;;;8.30;99.90;;;;;;4855496;29;20666;-80
2021/01/27 09:34:22;;;;;;;47.10;22.77;;;8.40;99.90;;;;;;4871138;29;20293;-80
2021/01/27 09:36:49;;;;;;;36.33;16.83;;;8.50;99.90;;;;;;4913385;28;20584;-79
2021/01/27 09:39:26;;;;;;;30.20;17.30;;;8.60;99.90;;;;;;4969836;28;20207;-79
2021/01/27 09:41:54;;;;;;;33.37;16.03;;;8.70;99.90;;;;;;4970415;28;20239;-80
2021/01/27 09:44:30;;;;;;;30.67;15.43;;;8.80;99.90;;;;;;4970021;28;20275;-80
2021/01/27 09:46:58;;;;;;;38.47;18.90;;;9.00;99.90;;;;;;4970085;28;20209;-80
2021/01/27 09:49:24;;;;;;;36.83;18.80;;;9.00;99.90;;;;;;4970462;28;20231;-80
2021/01/27 09:51:54;;;;;;;37.87;17.63;;;9.00;99.90;;;;;;4969870;28;20654;-80
2021/01/27 09:54:22;;;;;;;39.50;19.17;;;8.90;99.90;;;;;;4969946;28;20241;-79
2021/01/27 09:56:54;;;;;;;42.73;19.30;;;8.90;99.90;;;;;;4970426;28;20246;-80
2021/01/27 09:59:21;;;;;;;40.73;18.43;;;8.80;99.90;;;;;;4970456;28;20236;-80
2021/01/27 10:01:49;;;;;;;43.83;18.63;;;8.80;99.90;;;;;;4969899;28;20244;-80
2021/01/27 10:04:18;;;;;;;43.40;19.27;;;8.90;99.90;;;;;;4970028;28;20255;-80
2021/01/27 10:06:49;;;;;;;38.77;19.10;;;9.00;99.90;;;;;;4969444;28;20206;-80
2021/01/27 10:09:22;;;;;;;38.47;19.03;;;9.00;99.90;;;;;;4969397;28;20720;-80
2021/01/27 10:11:59;;;;;;;38.80;17.97;;;9.00;99.90;;;;;;4969282;28;20222;-80
2021/01/27 10:14:29;;;;;;;38.33;18.53;;;9.00;99.90;;;;;;4970911;28;20211;-80
2021/01/27 10:16:58;;;;;;;35.27;17.97;;;9.10;99.90;;;;;;4968999;28;20286;-80
2021/01/27 10:19:28;;;;;;;36.20;18.07;;;9.10;99.90;;;;;;4972243;28;20223;-80
2021/01/27 10:21:57;;;;;;;37.03;18.63;;;9.20;99.90;;;;;;4970201;28;20241;-80
2021/01/27 10:24:47;;;;;;;35.73;18.37;;;9.10;99.90;;;;;;4969865;28;20206;-80
2021/01/27 10:27:21;;;;;;;38.87;19.00;;;9.20;99.90;;;;;;4970166;28;20214;-79
2021/01/27 10:29:48;;;;;;;35.00;17.23;;;9.30;99.90;;;;;;4970295;28;20207;-80
2021/01/27 10:32:22;;;;;;;27.67;16.43;;;9.50;99.90;;;;;;4969563;28;20608;-79
2021/01/27 10:34:50;;;;;;;29.13;15.47;;;9.50;99.90;;;;;;4970005;28;20702;-80
2021/01/27 10:37:31;;;;;;;27.37;14.30;;;9.50;99.90;;;;;;4969409;28;20231;-80
2021/01/27 10:40:09;;;;;;;25.43;13.80;;;9.60;99.90;;;;;;4970161;28;20198;-80
2021/01/27 10:42:38;;;;;;;25.30;12.37;;;9.70;99.90;;;;;;5000503;28;20226;-80
2021/01/27 10:45:23;;;;;;;23.77;12.40;;;9.70;99.90;;;;;;4969542;28;20247;-79
2021/01/27 10:48:08;;;;;;;18.87;11.77;;;9.70;99.90;;;;;;4991315;28;20249;-79
2021/01/27 10:50:36;;;;;;;27.00;13.07;;;9.70;99.90;;;;;;4970171;28;20206;-80
2021/01/27 10:53:05;;;;;;;22.27;13.23;;;9.80;99.90;;;;;;5032394;28;20246;-80
2021/01/27 10:55:34;;;;;;;23.67;12.93;;;9.80;99.90;;;;;;4969659;28;20237;-80
2021/01/27 10:58:07;;;;;;;27.07;13.93;;;9.80;99.90;;;;;;4969668;28;20233;-80
2021/01/27 11:00:34;;;;;;;27.40;13.17;;;9.90;99.90;;;;;;4961842;28;20209;-80
2021/01/27 11:03:01;;;;;;;22.07;12.87;;;10.00;99.90;;;;;;4969351;28;20235;-80
2021/01/27 11:05:27;;;;;;;26.17;13.83;;;10.20;99.90;;;;;;4969209;28;20208;-80
2021/01/27 11:07:54;;;;;;;21.47;12.90;;;10.40;99.90;;;;;;4968112;28;20207;-80
2021/01/27 11:10:21;;;;;;;21.50;12.03;;;10.50;99.90;;;;;;4968461;28;20237;-80
2021/01/27 11:12:47;;;;;;;20.40;12.63;;;10.60;99.90;;;;;;4968675;28;20344;-80
2021/01/27 11:15:15;;;;;;;19.00;11.53;;;10.70;99.90;;;;;;4969292;28;20200;-80
2021/01/27 11:17:41;;;;;;;18.90;10.43;;;10.80;99.90;;;;;;4968138;28;20268;-80
2021/01/27 11:20:09;;;;;;;15.73;9.77;;;10.90;99.90;;;;;;4982962;28;20230;-80
2021/01/27 11:22:37;;;;;;;17.07;9.00;;;11.10;99.90;;;;;;4981115;28;20195;-80
2021/01/27 11:25:05;;;;;;;14.57;7.57;;;11.00;99.90;;;;;;4972216;28;20234;-80
2021/01/27 11:27:31;;;;;;;10.17;7.10;;;10.90;99.90;;;;;;4969776;28;20230;-80
2021/01/27 11:30:01;;;;;;;15.10;7.40;;;10.80;99.90;;;;;;4969969;28;20224;-80
2021/01/27 11:32:28;;;;;;;14.30;7.43;;;10.80;99.90;;;;;;4970299;28;20295;-80
2021/01/27 11:34:55;;;;;;;10.73;7.47;;;10.80;99.90;;;;;;4970984;28;20610;-83
2021/01/27 11:37:21;;;;;;;11.30;7.33;;;10.90;99.90;;;;;;4970985;28;20233;-83
2021/01/27 11:39:47;;;;;;;12.43;7.63;;;11.00;99.90;;;;;;4986041;28;20206;-84
2021/01/27 11:42:15;;;;;;;12.10;5.80;;;11.00;99.90;;;;;;4972872;28;20252;-85
2021/01/27 11:44:42;;;;;;;9.50;5.67;;;11.00;99.90;;;;;;4998601;28;20207;-80
2021/01/27 11:47:08;;;;;;;11.37;5.57;;;11.10;99.90;;;;;;4972294;28;20234;-83
2021/01/27 11:49:36;;;;;;;9.40;5.80;;;11.00;99.90;;;;;;4993503;28;20226;-85
2021/01/27 11:52:04;;;;;;;10.67;7.17;;;11.20;99.90;;;;;;4985718;28;20321;-85
2021/01/27 11:54:30;;;;;;;12.77;7.37;;;11.40;99.90;;;;;;4972167;28;20202;-81
2021/01/27 11:56:57;;;;;;;10.90;6.80;;;11.50;99.90;;;;;;4971079;28;20244;-83
2021/01/27 11:59:23;;;;;;;11.27;6.17;;;11.30;99.90;;;;;;4971571;28;20199;-84
2021/01/27 12:01:50;;;;;;;7.77;6.13;;;11.30;99.90;;;;;;4971622;28;20281;-83
2021/01/27 12:04:16;;;;;;;10.00;7.20;;;11.30;99.90;;;;;;4971764;28;20695;-84
2021/01/27 12:06:44;;;;;;;10.33;7.73;;;11.20;99.90;;;;;;4971600;28;20238;-85
2021/01/27 12:09:10;;;;;;;9.13;6.33;;;11.20;99.90;;;;;;4971039;28;20234;-83
2021/01/27 12:11:37;;;;;;;10.83;7.87;;;11.20;99.90;;;;;;4972299;28;20226;-83
2021/01/27 12:14:03;;;;;;;7.87;5.30;;;11.30;99.90;;;;;;4973382;28;20198;-83
2021/01/27 12:16:29;;;;;;;9.07;5.77;;;11.20;99.90;;;;;;4971672;28;20694;-83
2021/01/27 12:18:56;;;;;;;9.70;5.33;;;11.20;99.90;;;;;;4985703;28;20234;-83
2021/01/27 12:21:22;;;;;;;9.53;6.60;;;11.20;99.90;;;;;;4971728;28;20293;-83
2021/01/27 12:23:50;;;;;;;12.73;7.07;;;11.20;99.90;;;;;;4971803;28;20194;-83
2021/01/27 12:26:16;;;;;;;9.20;6.87;;;11.20;99.90;;;;;;4970428;28;20675;-83
2021/01/27 12:28:44;;;;;;;11.90;8.27;;;11.20;99.90;;;;;;4971718;28;20214;-84
2021/01/27 12:31:11;;;;;;;14.37;8.43;;;11.20;99.90;;;;;;4971333;28;20322;-84
2021/01/27 12:33:38;;;;;;;10.90;7.83;;;11.10;99.90;;;;;;4970799;28;20229;-83
2021/01/27 12:36:05;;;;;;;10.00;7.10;;;11.20;99.90;;;;;;4971886;28;20233;-81
2021/01/27 12:38:32;;;;;;;16.63;8.10;;;11.20;99.90;;;;;;4970053;28;20238;-82
2021/01/27 12:41:01;;;;;;;9.47;6.63;;;11.20;99.90;;;;;;4972623;28;20222;-82
2021/01/27 12:43:27;;;;;;;10.40;7.07;;;11.10;99.90;;;;;;4969684;28;20222;-82
2021/01/27 12:45:54;;;;;;;10.17;6.70;;;11.00;99.90;;;;;;4969685;28;20238;-82
2021/01/27 12:48:21;;;;;;;9.57;7.10;;;10.90;99.90;;;;;;4969728;28;20680;-81
2021/01/27 12:50:47;;;;;;;10.00;7.37;;;10.90;99.90;;;;;;4970522;28;20285;-82
2021/01/27 12:53:14;;;;;;;12.90;7.60;;;11.10;99.90;;;;;;4971229;28;20248;-81
2021/01/27 12:55:40;;;;;;;9.83;7.07;;;11.20;99.90;;;;;;4970134;28;20707;-81
2021/01/27 12:58:08;;;;;;;12.77;7.53;;;11.30;99.90;;;;;;4970718;28;20206;-81
2021/01/27 13:00:34;;;;;;;9.20;6.10;;;11.30;99.90;;;;;;4970604;28;20234;-81
2021/01/27 13:03:00;;;;;;;10.53;5.90;;;11.20;99.90;;;;;;4970274;28;20659;-82
2021/01/27 13:05:27;;;;;;;9.33;6.90;;;11.20;99.90;;;;;;4979748;28;20580;-82
2021/01/27 13:07:53;;;;;;;9.13;6.27;;;11.20;99.90;;;;;;4970496;28;20285;-82
2021/01/27 13:10:20;;;;;;;8.73;6.73;;;11.20;99.90;;;;;;4970625;28;20595;-82
2021/01/27 13:12:50;;;;;;;9.47;6.57;;;11.20;99.90;;;;;;4975353;28;20770;-82